Flight Track Log - Related Links

Times and Time Zones

All times are in EDT time to prevent confusion due to time zone crossing. See the FIN666 flight status page for this flight to view local times or setup timezone preferences in your user account.

Time Position Orientation Groundspeed Altitude Reporting Facility
EDT Latitude Longitude Course Direction KTS MPH feet Rate Location/Type
Mon 07:25:00 AM 55.8389 13.1126 49° Northeast  Level Estimated
Mon 07:26:00 AM 55.9122 13.2660 50° Northeast  Level Estimated
Mon 07:27:00 AM 55.9853 13.4199 50° Northeast  Level Estimated
Mon 07:28:00 AM 56.0582 13.5744 50° Northeast  Level Estimated
Mon 07:29:00 AM 56.1309 13.7295 50° Northeast  Level Estimated
Mon 07:30:00 AM 56.2034 13.8852 50° Northeast  Level Estimated
Mon 07:31:00 AM 56.2757 14.0415 50° Northeast  Level Estimated
Mon 07:32:00 AM 56.3478 14.1984 50° Northeast  Level Estimated
Mon 07:33:00 AM 56.4197 14.3559 50° Northeast  Level Estimated
Mon 07:34:00 AM 56.4915 14.5139 51° Northeast  Level Estimated
Mon 07:35:00 AM 56.5630 14.6726 51° Northeast  Level Estimated
Mon 07:36:00 AM 56.6343 14.8319 51° Northeast  Level Estimated
Mon 07:37:00 AM 56.7054 14.9917 51° Northeast  Level Estimated
Mon 07:38:00 AM 56.7763 15.1522 51° Northeast  Level Estimated
Mon 07:39:00 AM 56.8470 15.3133 51° Northeast  Level Estimated
Mon 07:40:00 AM 56.9175 15.4750 51° Northeast  Level Estimated
Mon 07:41:00 AM 56.9878 15.6373 51° Northeast  Level Estimated
Mon 07:42:00 AM 57.0578 15.8002 52° Northeast  Level Estimated
Mon 07:43:00 AM 57.1277 15.9637 52° Northeast  Level Estimated
Mon 07:44:00 AM 57.1973 16.1278 52° Northeast  Level Estimated
Mon 07:45:00 AM 57.2668 16.2926 52° Northeast  Level Estimated
Mon 07:46:00 AM 57.3360 16.4580 52° Northeast  Level Estimated
Mon 07:47:00 AM 57.4049 16.6240 52° Northeast  Level Estimated
Mon 07:48:00 AM 57.4718 16.7860 52° Northeast  Level Estimated
Mon 07:49:00 AM 57.5385 16.9487 53° Northeast  Level Estimated
Mon 07:50:00 AM 57.6050 17.1119 53° Northeast  Level Estimated
Mon 07:51:00 AM 57.6712 17.2758 53° Northeast  Level Estimated
Mon 07:52:00 AM 57.7373 17.4402 53° Northeast  Level Estimated
Mon 07:53:00 AM 57.8031 17.6053 53° Northeast  Level Estimated
Mon 07:54:00 AM 57.8688 17.7709 53° Northeast  Level Estimated
Mon 07:55:00 AM 57.9342 17.9372 53° Northeast  Level Estimated
Mon 07:56:00 AM 57.9994 18.1040 54° Northeast  Level Estimated
Mon 07:57:00 AM 58.0643 18.2715 54° Northeast  Level Estimated
Mon 07:58:00 AM 58.1291 18.4396 54° Northeast  Level Estimated
Mon 07:59:00 AM 58.1936 18.6082 54° Northeast  Level Estimated
Mon 08:00:00 AM 58.2579 18.7775 54° Northeast  Level Estimated
Mon 08:01:00 AM 58.3220 18.9474 54° Northeast  Level Estimated
Mon 08:02:00 AM 58.3858 19.1180 54° Northeast  Level Estimated
Mon 08:03:00 AM 58.4495 19.2891 55° Northeast  Level Estimated
Mon 08:04:00 AM 58.5129 19.4609 55° Northeast  Level Estimated
Mon 08:05:00 AM 58.5760 19.6332 55° Northeast  Level Estimated
Mon 08:06:00 AM 58.6389 19.8063 55° Northeast  Level Estimated
Mon 08:07:00 AM 58.7016 19.9799 55° Northeast  Level Estimated
Mon 08:08:00 AM 58.7641 20.1541 55° Northeast  Level Estimated
Mon 08:09:00 AM 58.8263 20.3290 55° Northeast  Level Estimated
Mon 08:10:00 AM 58.8883 20.5045 56° Northeast  Level Estimated
Mon 08:11:00 AM 58.9501 20.6807 56° Northeast  Level Estimated
Mon 08:12:00 AM 59.0116 20.8574 56° Northeast  Level Estimated
Mon 08:13:00 AM 59.0729 21.0348 56° Northeast  Level Estimated
Mon 08:14:00 AM 59.1339 21.2129 56° Northeast  Level Estimated
Mon 08:15:00 AM 59.1947 21.3915 56° Northeast  Level Estimated
Mon 08:16:00 AM 59.2552 21.5708 57° Northeast  Level Estimated
Mon 08:17:00 AM 59.3155 21.7508 57° Northeast  Level Estimated
Mon 08:18:00 AM 59.3755 21.9314 57° Northeast  Level Estimated
Mon 08:19:00 AM 59.4353 22.1126 57° Northeast  Level Estimated
Mon 08:20:00 AM 59.4949 22.2944 57° Northeast  Level Estimated
Mon 08:21:00 AM 59.5542 22.4769 57° Northeast  Level Estimated
Mon 08:22:00 AM 59.6132 22.6601 57° Northeast  Level Estimated
Mon 08:23:00 AM 59.6720 22.8439 58° Northeast  Level Estimated
Mon 08:24:00 AM 59.7305 23.0283 58° Northeast  Level Estimated
Mon 08:25:00 AM 59.7888 23.2134 58° Northeast  Level Estimated
Mon 08:26:00 AM 59.8468 23.3991 58° Northeast  Level Estimated
Mon 08:27:00 AM 59.9045 23.5854 58° Northeast  Level Estimated
Mon 08:28:00 AM 59.9620 23.7725 58° Northeast  Level Estimated
Mon 08:29:00 AM 60.0192 23.9601 59° Northeast  Level Estimated
Mon 08:30:00 AM 60.0761 24.1484 59° Northeast  Level Estimated
Mon 08:31:00 AM 60.1328 24.3374 59° Northeast  Level Estimated
Mon 08:32:00 AM 60.1892 24.5270 59° Northeast  Level Estimated
Mon 08:33:00 AM 60.2453 24.7173 59° Northeast  Level Estimated
Mon 08:34:00 AM 60.3012 24.9082 59° Northeast  Level Estimated
Mon 08:35:00 AM 60.3172 24.9633 60° Northeast  Level Estimated
Mon 08:36:00 AM 60.3172 24.9633 37° Northeast  Level Estimated
Mon 08:37:00 AM 60.3172 24.9633 37° Northeast  Level Estimated
Mon 08:38:00 AM 60.3172 24.9633 37° Northeast  Level Estimated
Mon 08:39:00 AM 60.3172 24.9633 37° Northeast  Level Estimated
Mon 08:40:00 AM 60.3172 24.9633 37° Northeast  Level Estimated
Mon 08:41:00 AM 60.3172 24.9633 37° Northeast  Level Estimated
Mon 08:42:00 AM 60.3172 24.9633 37° Northeast  Level Estimated
Mon 08:43:00 AM 60.3172 24.9633 37° Northeast  Level Estimated
Mon 08:44:00 AM 60.3172 24.9633 37° Northeast  Level Estimated
Mon 08:45:00 AM 60.3172 24.9633 37° Northeast  Level Estimated

Login

Don't have an account? Register now (free) for customized features, flight alerts, and more!